sensor_id;sensor_type;location;lat;lon;timestamp;temperature;humidity
20125;DHT22;10223;50.862;4.360;2023-06-04T00:02:17;17.20;92.80
20125;DHT22;10223;50.862;4.360;2023-06-04T00:04:44;17.10;92.60
20125;DHT22;10223;50.862;4.360;2023-06-04T00:07:11;17.10;93.00
20125;DHT22;10223;50.862;4.360;2023-06-04T00:09:38;17.00;93.00
20125;DHT22;10223;50.862;4.360;2023-06-04T00:12:05;17.10;93.00
20125;DHT22;10223;50.862;4.360;2023-06-04T00:14:34;17.20;92.90
20125;DHT22;10223;50.862;4.360;2023-06-04T00:17:01;17.20;93.20
20125;DHT22;10223;50.862;4.360;2023-06-04T00:19:28;17.40;93.10
20125;DHT22;10223;50.862;4.360;2023-06-04T00:21:55;17.30;93.00
20125;DHT22;10223;50.862;4.360;2023-06-04T00:24:21;17.20;93.30
20125;DHT22;10223;50.862;4.360;2023-06-04T00:26:48;17.20;93.20
20125;DHT22;10223;50.862;4.360;2023-06-04T00:29:15;17.20;93.40
20125;DHT22;10223;50.862;4.360;2023-06-04T00:31:44;17.20;93.60
20125;DHT22;10223;50.862;4.360;2023-06-04T00:34:11;17.10;93.70
20125;DHT22;10223;50.862;4.360;2023-06-04T00:36:39;17.10;93.80
20125;DHT22;10223;50.862;4.360;2023-06-04T00:39:06;17.00;94.10
20125;DHT22;10223;50.862;4.360;2023-06-04T00:41:33;16.90;94.50
20125;DHT22;10223;50.862;4.360;2023-06-04T00:44:00;16.70;94.80
20125;DHT22;10223;50.862;4.360;2023-06-04T00:46:28;16.70;95.50
20125;DHT22;10223;50.862;4.360;2023-06-04T00:48:58;16.50;95.40
20125;DHT22;10223;50.862;4.360;2023-06-04T00:51:25;16.50;95.70
20125;DHT22;10223;50.862;4.360;2023-06-04T00:53:53;16.60;95.90
20125;DHT22;10223;50.862;4.360;2023-06-04T00:56:20;16.60;95.80
20125;DHT22;10223;50.862;4.360;2023-06-04T00:58:47;16.60;96.00
20125;DHT22;10223;50.862;4.360;2023-06-04T01:01:20;16.40;96.40
20125;DHT22;10223;50.862;4.360;2023-06-04T01:03:52;16.30;97.10
20125;DHT22;10223;50.862;4.360;2023-06-04T01:06:28;16.30;96.80
20125;DHT22;10223;50.862;4.360;2023-06-04T01:08:58;16.20;97.00
20125;DHT22;10223;50.862;4.360;2023-06-04T01:11:33;16.20;97.10
20125;DHT22;10223;50.862;4.360;2023-06-04T01:14:00;16.20;97.20
20125;DHT22;10223;50.862;4.360;2023-06-04T01:16:29;16.10;97.60
20125;DHT22;10223;50.862;4.360;2023-06-04T01:18:58;16.00;97.80
20125;DHT22;10223;50.862;4.360;2023-06-04T01:21:30;16.10;98.00
20125;DHT22;10223;50.862;4.360;2023-06-04T01:24:01;16.00;98.20
20125;DHT22;10223;50.862;4.360;2023-06-04T01:26:32;16.00;98.20
20125;DHT22;10223;50.862;4.360;2023-06-04T01:29:01;16.00;98.20
20125;DHT22;10223;50.862;4.360;2023-06-04T01:31:28;15.90;98.60
20125;DHT22;10223;50.862;4.360;2023-06-04T01:33:58;15.90;98.90
20125;DHT22;10223;50.862;4.360;2023-06-04T01:36:25;15.90;99.00
20125;DHT22;10223;50.862;4.360;2023-06-04T01:38:54;15.90;99.20
20125;DHT22;10223;50.862;4.360;2023-06-04T01:41:21;15.60;99.80
20125;DHT22;10223;50.862;4.360;2023-06-04T01:43:48;15.60;99.90
20125;DHT22;10223;50.862;4.360;2023-06-04T01:46:15;15.60;99.90
20125;DHT22;10223;50.862;4.360;2023-06-04T01:48:42;15.60;99.90
20125;DHT22;10223;50.862;4.360;2023-06-04T01:51:09;15.50;99.90
20125;DHT22;10223;50.862;4.360;2023-06-04T01:53:36;15.40;99.90
20125;DHT22;10223;50.862;4.360;2023-06-04T01:56:04;15.30;99.90
20125;DHT22;10223;50.862;4.360;2023-06-04T01:58:33;15.30;99.90
20125;DHT22;10223;50.862;4.360;2023-06-04T02:00:59;15.20;99.90
20125;DHT22;10223;50.862;4.360;2023-06-04T02:03:28;15.30;99.90
20125;DHT22;10223;50.862;4.360;2023-06-04T02:06:03;15.30;99.90
20125;DHT22;10223;50.862;4.360;2023-06-04T02:08:30;15.20;99.90
20125;DHT22;10223;50.862;4.360;2023-06-04T02:10:59;15.20;99.90
20125;DHT22;10223;50.862;4.360;2023-06-04T02:13:27;15.30;99.90
20125;DHT22;10223;50.862;4.360;2023-06-04T02:15:54;15.20;99.90
20125;DHT22;10223;50.862;4.360;2023-06-04T02:18:20;15.20;99.90
20125;DHT22;10223;50.862;4.360;2023-06-04T02:20:49;15.10;99.90
20125;DHT22;10223;50.862;4.360;2023-06-04T02:23:18;15.20;99.90
20125;DHT22;10223;50.862;4.360;2023-06-04T02:25:45;15.10;99.90
20125;DHT22;10223;50.862;4.360;2023-06-04T02:28:13;15.10;99.90
20125;DHT22;10223;50.862;4.360;2023-06-04T02:30:42;15.10;99.90
20125;DHT22;10223;50.862;4.360;2023-06-04T02:33:09;15.20;99.90
20125;DHT22;10223;50.862;4.360;2023-06-04T02:35:36;15.20;99.90
20125;DHT22;10223;50.862;4.360;2023-06-04T02:38:03;15.20;99.90
20125;DHT22;10223;50.862;4.360;2023-06-04T02:40:30;15.20;99.90
20125;DHT22;10223;50.862;4.360;2023-06-04T02:42:57;15.30;99.90
20125;DHT22;10223;50.862;4.360;2023-06-04T02:45:24;15.20;99.90
20125;DHT22;10223;50.862;4.360;2023-06-04T02:47:53;15.20;99.90
20125;DHT22;10223;50.862;4.360;2023-06-04T02:50:20;15.20;99.90
20125;DHT22;10223;50.862;4.360;2023-06-04T02:52:47;15.00;99.90
20125;DHT22;10223;50.862;4.360;2023-06-04T02:55:14;15.00;99.90
20125;DHT22;10223;50.862;4.360;2023-06-04T02:57:41;15.00;99.90
20125;DHT22;10223;50.862;4.360;2023-06-04T03:00:09;15.10;99.90
20125;DHT22;10223;50.862;4.360;2023-06-04T03:02:40;14.90;99.90
20125;DHT22;10223;50.862;4.360;2023-06-04T03:05:13;14.90;99.90
20125;DHT22;10223;50.862;4.360;2023-06-04T03:07:41;14.70;99.90
20125;DHT22;10223;50.862;4.360;2023-06-04T03:10:11;14.70;99.90
20125;DHT22;10223;50.862;4.360;2023-06-04T03:12:38;14.80;99.90
20125;DHT22;10223;50.862;4.360;2023-06-04T03:15:06;14.60;99.90
20125;DHT22;10223;50.862;4.360;2023-06-04T03:17:33;14.50;99.90
20125;DHT22;10223;50.862;4.360;2023-06-04T03:20:00;14.60;99.90
20125;DHT22;10223;50.862;4.360;2023-06-04T03:22:28;14.60;99.90
20125;DHT22;10223;50.862;4.360;2023-06-04T03:24:58;14.40;99.90
20125;DHT22;10223;50.862;4.360;2023-06-04T03:27:25;14.40;99.90
20125;DHT22;10223;50.862;4.360;2023-06-04T03:29:52;14.40;99.90
20125;DHT22;10223;50.862;4.360;2023-06-04T03:32:19;14.50;99.90
20125;DHT22;10223;50.862;4.360;2023-06-04T03:34:48;14.50;99.90
20125;DHT22;10223;50.862;4.360;2023-06-04T03:37:16;14.40;99.90
20125;DHT22;10223;50.862;4.360;2023-06-04T03:39:44;14.40;99.90
20125;DHT22;10223;50.862;4.360;2023-06-04T03:42:12;14.50;99.90
20125;DHT22;10223;50.862;4.360;2023-06-04T03:44:39;14.50;99.90
20125;DHT22;10223;50.862;4.360;2023-06-04T03:47:06;14.50;99.90
20125;DHT22;10223;50.862;4.360;2023-06-04T03:49:33;14.60;99.90
20125;DHT22;10223;50.862;4.360;2023-06-04T03:52:00;14.60;99.90
20125;DHT22;10223;50.862;4.360;2023-06-04T03:54:27;14.80;99.90
20125;DHT22;10223;50.862;4.360;2023-06-04T03:56:55;14.70;99.90
20125;DHT22;10223;50.862;4.360;2023-06-04T03:59:22;14.70;99.90
20125;DHT22;10223;50.862;4.360;2023-06-04T04:01:49;14.50;99.90
20125;DHT22;10223;50.862;4.360;2023-06-04T04:04:15;14.40;99.90
20125;DHT22;10223;50.862;4.360;2023-06-04T04:06:43;14.50;99.90
20125;DHT22;10223;50.862;4.360;2023-06-04T04:09:10;14.40;99.90
20125;DHT22;10223;50.862;4.360;2023-06-04T04:11:36;14.40;99.90
20125;DHT22;10223;50.862;4.360;2023-06-04T04:14:05;14.40;99.90
20125;DHT22;10223;50.862;4.360;2023-06-04T04:16:32;14.50;99.90
20125;DHT22;10223;50.862;4.360;2023-06-04T04:18:59;14.50;99.90
20125;DHT22;10223;50.862;4.360;2023-06-04T04:21:26;14.50;99.90
20125;DHT22;10223;50.862;4.360;2023-06-04T04:23:53;14.50;99.90
20125;DHT22;10223;50.862;4.360;2023-06-04T04:26:21;14.50;99.90
20125;DHT22;10223;50.862;4.360;2023-06-04T04:28:48;14.50;99.90
20125;DHT22;10223;50.862;4.360;2023-06-04T04:31:16;14.50;99.90
20125;DHT22;10223;50.862;4.360;2023-06-04T04:33:43;14.50;99.90
20125;DHT22;10223;50.862;4.360;2023-06-04T04:36:11;14.50;99.90
20125;DHT22;10223;50.862;4.360;2023-06-04T04:38:39;14.50;99.90
20125;DHT22;10223;50.862;4.360;2023-06-04T04:41:06;14.60;99.90
20125;DHT22;10223;50.862;4.360;2023-06-04T04:43:35;14.50;99.90
20125;DHT22;10223;50.862;4.360;2023-06-04T04:46:03;14.40;99.90
20125;DHT22;10223;50.862;4.360;2023-06-04T04:48:32;14.50;99.90
20125;DHT22;10223;50.862;4.360;2023-06-04T04:50:59;14.60;99.90
20125;DHT22;10223;50.862;4.360;2023-06-04T04:53:26;14.50;99.90
20125;DHT22;10223;50.862;4.360;2023-06-04T04:55:53;14.40;99.90
20125;DHT22;10223;50.862;4.360;2023-06-04T04:58:21;14.40;99.90
20125;DHT22;10223;50.862;4.360;2023-06-04T05:00:48;14.40;99.90
20125;DHT22;10223;50.862;4.360;2023-06-04T05:03:15;14.50;99.90
20125;DHT22;10223;50.862;4.360;2023-06-04T05:05:43;14.50;99.90
20125;DHT22;10223;50.862;4.360;2023-06-04T05:08:12;14.50;99.90
20125;DHT22;10223;50.862;4.360;2023-06-04T05:10:39;14.50;99.90
20125;DHT22;10223;50.862;4.360;2023-06-04T05:13:06;14.60;99.90
20125;DHT22;10223;50.862;4.360;2023-06-04T05:15:33;14.60;99.90
20125;DHT22;10223;50.862;4.360;2023-06-04T05:18:00;14.50;99.90
20125;DHT22;10223;50.862;4.360;2023-06-04T05:20:27;14.60;99.90
20125;DHT22;10223;50.862;4.360;2023-06-04T05:22:56;14.70;99.90
20125;DHT22;10223;50.862;4.360;2023-06-04T05:25:23;14.60;99.90
20125;DHT22;10223;50.862;4.360;2023-06-04T05:27:52;14.70;99.90
20125;DHT22;10223;50.862;4.360;2023-06-04T05:30:22;14.80;99.90
20125;DHT22;10223;50.862;4.360;2023-06-04T05:32:49;14.70;99.90
20125;DHT22;10223;50.862;4.360;2023-06-04T05:35:19;14.70;99.90
20125;DHT22;10223;50.862;4.360;2023-06-04T05:37:46;14.80;99.90
20125;DHT22;10223;50.862;4.360;2023-06-04T05:40:20;14.90;99.90
20125;DHT22;10223;50.862;4.360;2023-06-04T05:42:47;14.90;99.90
20125;DHT22;10223;50.862;4.360;2023-06-04T05:45:15;15.00;99.90
20125;DHT22;10223;50.862;4.360;2023-06-04T05:47:41;15.10;99.90
20125;DHT22;10223;50.862;4.360;2023-06-04T05:50:09;15.00;99.90
20125;DHT22;10223;50.862;4.360;2023-06-04T05:52:36;15.00;99.90
20125;DHT22;10223;50.862;4.360;2023-06-04T05:55:04;15.00;99.90
20125;DHT22;10223;50.862;4.360;2023-06-04T05:57:34;15.10;99.90
20125;DHT22;10223;50.862;4.360;2023-06-04T06:00:01;15.30;99.90
20125;DHT22;10223;50.862;4.360;2023-06-04T06:02:29;15.10;99.90
20125;DHT22;10223;50.862;4.360;2023-06-04T06:04:57;15.00;99.90
20125;DHT22;10223;50.862;4.360;2023-06-04T06:07:24;14.90;99.90
20125;DHT22;10223;50.862;4.360;2023-06-04T06:09:51;15.00;99.90
20125;DHT22;10223;50.862;4.360;2023-06-04T06:12:18;14.90;99.90
20125;DHT22;10223;50.862;4.360;2023-06-04T06:14:47;15.00;99.90
20125;DHT22;10223;50.862;4.360;2023-06-04T06:17:14;15.10;99.90
20125;DHT22;10223;50.862;4.360;2023-06-04T06:19:41;15.20;99.90
20125;DHT22;10223;50.862;4.360;2023-06-04T06:22:08;15.20;99.90
20125;DHT22;10223;50.862;4.360;2023-06-04T06:24:35;15.30;99.90
20125;DHT22;10223;50.862;4.360;2023-06-04T06:27:03;15.30;99.90
20125;DHT22;10223;50.862;4.360;2023-06-04T06:29:30;15.30;99.90
20125;DHT22;10223;50.862;4.360;2023-06-04T06:31:59;15.40;99.90
20125;DHT22;10223;50.862;4.360;2023-06-04T06:34:26;15.50;99.90
20125;DHT22;10223;50.862;4.360;2023-06-04T06:36:53;15.60;99.90
20125;DHT22;10223;50.862;4.360;2023-06-04T06:39:20;15.60;99.90
20125;DHT22;10223;50.862;4.360;2023-06-04T06:41:47;15.70;99.90
20125;DHT22;10223;50.862;4.360;2023-06-04T06:44:14;15.90;99.90
20125;DHT22;10223;50.862;4.360;2023-06-04T06:46:42;16.00;99.90
20125;DHT22;10223;50.862;4.360;2023-06-04T06:49:11;16.00;99.90
20125;DHT22;10223;50.862;4.360;2023-06-04T06:51:37;16.00;99.90
20125;DHT22;10223;50.862;4.360;2023-06-04T06:54:04;16.20;99.90
20125;DHT22;10223;50.862;4.360;2023-06-04T06:56:32;16.20;99.90
20125;DHT22;10223;50.862;4.360;2023-06-04T06:58:59;16.20;99.90
20125;DHT22;10223;50.862;4.360;2023-06-04T07:01:26;16.30;99.90
20125;DHT22;10223;50.862;4.360;2023-06-04T07:03:53;16.30;99.90
20125;DHT22;10223;50.862;4.360;2023-06-04T07:06:21;16.40;99.90
20125;DHT22;10223;50.862;4.360;2023-06-04T07:08:48;16.50;99.90
20125;DHT22;10223;50.862;4.360;2023-06-04T07:11:16;16.60;99.90
20125;DHT22;10223;50.862;4.360;2023-06-04T07:13:43;16.60;99.90
20125;DHT22;10223;50.862;4.360;2023-06-04T07:16:10;16.80;99.90
20125;DHT22;10223;50.862;4.360;2023-06-04T07:18:37;17.00;99.90
20125;DHT22;10223;50.862;4.360;2023-06-04T07:21:04;17.10;99.90
20125;DHT22;10223;50.862;4.360;2023-06-04T07:23:32;17.20;99.90
20125;DHT22;10223;50.862;4.360;2023-06-04T07:25:59;17.60;99.90
20125;DHT22;10223;50.862;4.360;2023-06-04T07:28:26;17.80;99.90
20125;DHT22;10223;50.862;4.360;2023-06-04T07:30:53;18.30;99.90
20125;DHT22;10223;50.862;4.360;2023-06-04T07:33:20;18.50;99.90
20125;DHT22;10223;50.862;4.360;2023-06-04T07:35:53;18.80;99.90
20125;DHT22;10223;50.862;4.360;2023-06-04T07:38:20;18.80;99.90
20125;DHT22;10223;50.862;4.360;2023-06-04T07:40:48;19.20;99.90
20125;DHT22;10223;50.862;4.360;2023-06-04T07:43:15;19.10;99.90
20125;DHT22;10223;50.862;4.360;2023-06-04T07:45:42;19.40;99.90
20125;DHT22;10223;50.862;4.360;2023-06-04T07:48:09;19.50;99.90
20125;DHT22;10223;50.862;4.360;2023-06-04T07:50:37;19.50;99.90
20125;DHT22;10223;50.862;4.360;2023-06-04T07:53:12;20.00;99.90
20125;DHT22;10223;50.862;4.360;2023-06-04T07:55:39;20.50;99.90
20125;DHT22;10223;50.862;4.360;2023-06-04T07:58:08;20.70;99.90
20125;DHT22;10223;50.862;4.360;2023-06-04T08:00:35;20.70;99.90
20125;DHT22;10223;50.862;4.360;2023-06-04T08:03:01;20.70;99.90
20125;DHT22;10223;50.862;4.360;2023-06-04T08:05:28;20.80;99.90
20125;DHT22;10223;50.862;4.360;2023-06-04T08:07:55;21.30;99.90
20125;DHT22;10223;50.862;4.360;2023-06-04T08:10:22;21.40;99.90
20125;DHT22;10223;50.862;4.360;2023-06-04T08:12:49;21.80;99.90
20125;DHT22;10223;50.862;4.360;2023-06-04T08:15:18;22.40;99.90
20125;DHT22;10223;50.862;4.360;2023-06-04T08:17:45;22.30;99.90
20125;DHT22;10223;50.862;4.360;2023-06-04T08:20:12;22.10;99.90
20125;DHT22;10223;50.862;4.360;2023-06-04T08:22:39;22.00;99.90
20125;DHT22;10223;50.862;4.360;2023-06-04T08:25:07;21.80;99.90
20125;DHT22;10223;50.862;4.360;2023-06-04T08:27:34;22.00;99.90
20125;DHT22;10223;50.862;4.360;2023-06-04T08:30:01;22.00;99.90
20125;DHT22;10223;50.862;4.360;2023-06-04T08:32:30;22.10;99.90
20125;DHT22;10223;50.862;4.360;2023-06-04T08:34:58;22.00;99.90
20125;DHT22;10223;50.862;4.360;2023-06-04T08:37:25;22.30;99.50
20125;DHT22;10223;50.862;4.360;2023-06-04T08:39:52;22.40;98.50
20125;DHT22;10223;50.862;4.360;2023-06-04T08:42:22;22.60;98.10
20125;DHT22;10223;50.862;4.360;2023-06-04T08:44:54;23.40;97.10
20125;DHT22;10223;50.862;4.360;2023-06-04T08:47:24;23.20;97.80
20125;DHT22;10223;50.862;4.360;2023-06-04T08:49:55;23.60;95.70
20125;DHT22;10223;50.862;4.360;2023-06-04T08:52:25;23.30;95.80
20125;DHT22;10223;50.862;4.360;2023-06-04T08:54:53;22.80;95.70
20125;DHT22;10223;50.862;4.360;2023-06-04T08:57:22;22.90;97.00
20125;DHT22;10223;50.862;4.360;2023-06-04T08:59:50;23.10;96.40
20125;DHT22;10223;50.862;4.360;2023-06-04T09:02:17;23.00;95.80
20125;DHT22;10223;50.862;4.360;2023-06-04T09:04:44;22.80;95.50
20125;DHT22;10223;50.862;4.360;2023-06-04T09:07:13;22.60;95.40
20125;DHT22;10223;50.862;4.360;2023-06-04T09:09:44;22.80;95.30
20125;DHT22;10223;50.862;4.360;2023-06-04T09:12:17;23.20;94.60
20125;DHT22;10223;50.862;4.360;2023-06-04T09:14:47;23.20;94.50
20125;DHT22;10223;50.862;4.360;2023-06-04T09:17:20;23.50;93.80
20125;DHT22;10223;50.862;4.360;2023-06-04T09:19:47;23.40;93.30
20125;DHT22;10223;50.862;4.360;2023-06-04T09:22:16;23.40;93.40
20125;DHT22;10223;50.862;4.360;2023-06-04T09:24:44;23.80;92.80
20125;DHT22;10223;50.862;4.360;2023-06-04T09:27:13;23.50;92.60
20125;DHT22;10223;50.862;4.360;2023-06-04T09:29:48;23.70;92.10
20125;DHT22;10223;50.862;4.360;2023-06-04T09:32:20;24.00;92.30
20125;DHT22;10223;50.862;4.360;2023-06-04T09:34:47;23.40;92.30
20125;DHT22;10223;50.862;4.360;2023-06-04T09:37:16;23.70;92.50
20125;DHT22;10223;50.862;4.360;2023-06-04T09:39:43;24.10;91.90
20125;DHT22;10223;50.862;4.360;2023-06-04T09:42:10;24.20;91.80
20125;DHT22;10223;50.862;4.360;2023-06-04T09:44:43;24.30;91.20
20125;DHT22;10223;50.862;4.360;2023-06-04T09:47:11;24.60;90.50
20125;DHT22;10223;50.862;4.360;2023-06-04T09:49:40;24.30;90.70
20125;DHT22;10223;50.862;4.360;2023-06-04T09:52:10;23.90;90.90
20125;DHT22;10223;50.862;4.360;2023-06-04T09:54:40;23.90;90.70
20125;DHT22;10223;50.862;4.360;2023-06-04T09:57:14;23.70;90.80
20125;DHT22;10223;50.862;4.360;2023-06-04T09:59:44;24.00;90.60
20125;DHT22;10223;50.862;4.360;2023-06-04T10:02:12;24.40;90.40
20125;DHT22;10223;50.862;4.360;2023-06-04T10:04:40;24.50;89.60
20125;DHT22;10223;50.862;4.360;2023-06-04T10:07:09;24.30;88.30
20125;DHT22;10223;50.862;4.360;2023-06-04T10:09:39;24.00;88.50
20125;DHT22;10223;50.862;4.360;2023-06-04T10:12:13;24.30;88.40
20125;DHT22;10223;50.862;4.360;2023-06-04T10:14:45;24.00;87.20
20125;DHT22;10223;50.862;4.360;2023-06-04T10:17:15;23.80;88.20
20125;DHT22;10223;50.862;4.360;2023-06-04T10:19:43;24.10;88.50
20125;DHT22;10223;50.862;4.360;2023-06-04T10:22:11;24.40;87.90
20125;DHT22;10223;50.862;4.360;2023-06-04T10:24:40;24.30;87.40
20125;DHT22;10223;50.862;4.360;2023-06-04T10:27:07;24.30;88.10
20125;DHT22;10223;50.862;4.360;2023-06-04T10:29:36;24.60;88.10
20125;DHT22;10223;50.862;4.360;2023-06-04T10:32:04;24.10;87.30
20125;DHT22;10223;50.862;4.360;2023-06-04T10:34:31;24.50;87.50
20125;DHT22;10223;50.862;4.360;2023-06-04T10:36:58;24.70;85.90
20125;DHT22;10223;50.862;4.360;2023-06-04T10:39:26;24.50;86.50
20125;DHT22;10223;50.862;4.360;2023-06-04T10:42:03;24.20;87.20
20125;DHT22;10223;50.862;4.360;2023-06-04T10:44:31;24.30;87.60
20125;DHT22;10223;50.862;4.360;2023-06-04T10:46:58;24.50;86.80
20125;DHT22;10223;50.862;4.360;2023-06-04T10:49:26;24.70;86.30
20125;DHT22;10223;50.862;4.360;2023-06-04T10:51:53;25.00;86.30
20125;DHT22;10223;50.862;4.360;2023-06-04T10:54:23;25.00;84.60
20125;DHT22;10223;50.862;4.360;2023-06-04T10:56:52;25.10;84.20
20125;DHT22;10223;50.862;4.360;2023-06-04T10:59:21;25.10;83.80
20125;DHT22;10223;50.862;4.360;2023-06-04T11:01:49;25.10;83.60
20125;DHT22;10223;50.862;4.360;2023-06-04T11:04:21;25.20;83.50
20125;DHT22;10223;50.862;4.360;2023-06-04T11:06:48;25.40;83.00
20125;DHT22;10223;50.862;4.360;2023-06-04T11:09:26;25.40;82.10
20125;DHT22;10223;50.862;4.360;2023-06-04T11:11:57;25.20;83.10
20125;DHT22;10223;50.862;4.360;2023-06-04T11:14:26;25.00;82.90
20125;DHT22;10223;50.862;4.360;2023-06-04T11:16:53;25.10;83.40
20125;DHT22;10223;50.862;4.360;2023-06-04T11:19:20;25.20;81.50
20125;DHT22;10223;50.862;4.360;2023-06-04T11:21:47;24.60;81.70
20125;DHT22;10223;50.862;4.360;2023-06-04T11:24:15;24.60;81.40
20125;DHT22;10223;50.862;4.360;2023-06-04T11:26:42;24.80;80.90
20125;DHT22;10223;50.862;4.360;2023-06-04T11:29:11;24.90;80.80
20125;DHT22;10223;50.862;4.360;2023-06-04T11:31:43;24.90;81.00
20125;DHT22;10223;50.862;4.360;2023-06-04T11:34:11;25.20;81.00
20125;DHT22;10223;50.862;4.360;2023-06-04T11:36:48;25.00;81.70
20125;DHT22;10223;50.862;4.360;2023-06-04T11:39:18;25.30;81.60
20125;DHT22;10223;50.862;4.360;2023-06-04T11:41:46;25.50;81.50
20125;DHT22;10223;50.862;4.360;2023-06-04T11:44:13;25.50;81.20
20125;DHT22;10223;50.862;4.360;2023-06-04T11:46:42;25.30;80.10
20125;DHT22;10223;50.862;4.360;2023-06-04T11:49:15;25.50;80.70
20125;DHT22;10223;50.862;4.360;2023-06-04T11:51:46;25.10;80.10
20125;DHT22;10223;50.862;4.360;2023-06-04T11:54:13;25.00;80.00
20125;DHT22;10223;50.862;4.360;2023-06-04T11:56:42;24.90;79.90
20125;DHT22;10223;50.862;4.360;2023-06-04T11:59:11;25.00;80.80
20125;DHT22;10223;50.862;4.360;2023-06-04T12:01:39;25.30;80.10
20125;DHT22;10223;50.862;4.360;2023-06-04T12:04:13;25.40;80.10
20125;DHT22;10223;50.862;4.360;2023-06-04T12:06:50;25.70;78.50
20125;DHT22;10223;50.862;4.360;2023-06-04T12:09:20;25.30;78.60
20125;DHT22;10223;50.862;4.360;2023-06-04T12:11:48;25.20;78.60
20125;DHT22;10223;50.862;4.360;2023-06-04T12:14:16;25.20;79.20
20125;DHT22;10223;50.862;4.360;2023-06-04T12:16:54;25.30;79.20
20125;DHT22;10223;50.862;4.360;2023-06-04T12:19:22;25.30;78.50
20125;DHT22;10223;50.862;4.360;2023-06-04T12:21:59;25.00;78.80
20125;DHT22;10223;50.862;4.360;2023-06-04T12:24:27;24.90;78.60
20125;DHT22;10223;50.862;4.360;2023-06-04T12:27:02;25.00;78.50
20125;DHT22;10223;50.862;4.360;2023-06-04T12:29:29;24.90;79.50
20125;DHT22;10223;50.862;4.360;2023-06-04T12:32:02;25.00;78.40
20125;DHT22;10223;50.862;4.360;2023-06-04T12:34:31;25.00;79.70
20125;DHT22;10223;50.862;4.360;2023-06-04T12:36:58;25.10;78.00
20125;DHT22;10223;50.862;4.360;2023-06-04T12:39:25;25.10;77.30
20125;DHT22;10223;50.862;4.360;2023-06-04T12:41:52;24.90;78.20
20125;DHT22;10223;50.862;4.360;2023-06-04T12:44:19;25.20;78.00
20125;DHT22;10223;50.862;4.360;2023-06-04T12:46:46;25.20;77.50
20125;DHT22;10223;50.862;4.360;2023-06-04T12:49:13;25.00;78.00
20125;DHT22;10223;50.862;4.360;2023-06-04T12:51:42;24.80;78.60
20125;DHT22;10223;50.862;4.360;2023-06-04T12:54:10;25.00;78.50
20125;DHT22;10223;50.862;4.360;2023-06-04T12:56:37;25.20;78.40
20125;DHT22;10223;50.862;4.360;2023-06-04T12:59:04;25.10;78.20
20125;DHT22;10223;50.862;4.360;2023-06-04T13:01:31;25.50;78.90
20125;DHT22;10223;50.862;4.360;2023-06-04T13:03:58;25.80;77.30
20125;DHT22;10223;50.862;4.360;2023-06-04T13:06:25;25.90;76.60
20125;DHT22;10223;50.862;4.360;2023-06-04T13:08:53;25.90;75.70
20125;DHT22;10223;50.862;4.360;2023-06-04T13:11:20;26.00;75.80
20125;DHT22;10223;50.862;4.360;2023-06-04T13:13:47;26.20;74.30
20125;DHT22;10223;50.862;4.360;2023-06-04T13:16:14;26.20;74.90
20125;DHT22;10223;50.862;4.360;2023-06-04T13:18:41;26.60;74.20
20125;DHT22;10223;50.862;4.360;2023-06-04T13:21:08;26.70;73.60
20125;DHT22;10223;50.862;4.360;2023-06-04T13:23:35;26.70;74.50
20125;DHT22;10223;50.862;4.360;2023-06-04T13:26:03;26.70;74.70
20125;DHT22;10223;50.862;4.360;2023-06-04T13:28:32;26.70;74.20
20125;DHT22;10223;50.862;4.360;2023-06-04T13:31:00;26.70;74.10
20125;DHT22;10223;50.862;4.360;2023-06-04T13:33:27;27.10;73.80
20125;DHT22;10223;50.862;4.360;2023-06-04T13:35:54;27.70;72.20
20125;DHT22;10223;50.862;4.360;2023-06-04T13:38:21;27.80;71.10
20125;DHT22;10223;50.862;4.360;2023-06-04T13:40:48;27.70;71.10
20125;DHT22;10223;50.862;4.360;2023-06-04T13:43:16;28.00;70.50
20125;DHT22;10223;50.862;4.360;2023-06-04T13:45:43;28.30;69.50
20125;DHT22;10223;50.862;4.360;2023-06-04T13:48:11;28.10;68.90
20125;DHT22;10223;50.862;4.360;2023-06-04T13:50:38;27.90;70.20
20125;DHT22;10223;50.862;4.360;2023-06-04T13:53:05;28.20;69.20
20125;DHT22;10223;50.862;4.360;2023-06-04T13:55:32;28.40;67.80
20125;DHT22;10223;50.862;4.360;2023-06-04T13:57:59;28.70;67.70
20125;DHT22;10223;50.862;4.360;2023-06-04T14:00:27;29.30;66.80
20125;DHT22;10223;50.862;4.360;2023-06-04T14:02:55;29.70;65.70
20125;DHT22;10223;50.862;4.360;2023-06-04T14:05:24;30.40;65.60
20125;DHT22;10223;50.862;4.360;2023-06-04T14:07:53;31.20;63.90
20125;DHT22;10223;50.862;4.360;2023-06-04T14:10:20;30.40;63.80
20125;DHT22;10223;50.862;4.360;2023-06-04T14:12:47;29.90;64.20
20125;DHT22;10223;50.862;4.360;2023-06-04T14:15:14;29.70;63.90
20125;DHT22;10223;50.862;4.360;2023-06-04T14:17:42;29.80;63.40
20125;DHT22;10223;50.862;4.360;2023-06-04T14:20:09;29.70;64.20
20125;DHT22;10223;50.862;4.360;2023-06-04T14:22:37;29.10;64.20
20125;DHT22;10223;50.862;4.360;2023-06-04T14:25:06;29.20;64.40
20125;DHT22;10223;50.862;4.360;2023-06-04T14:27:34;30.00;63.80
20125;DHT22;10223;50.862;4.360;2023-06-04T14:30:01;30.10;61.60
20125;DHT22;10223;50.862;4.360;2023-06-04T14:32:29;29.50;62.20
20125;DHT22;10223;50.862;4.360;2023-06-04T14:34:57;29.70;62.20
20125;DHT22;10223;50.862;4.360;2023-06-04T14:37:24;29.60;62.30
20125;DHT22;10223;50.862;4.360;2023-06-04T14:39:51;30.10;61.60
20125;DHT22;10223;50.862;4.360;2023-06-04T14:42:18;31.00;60.10
20125;DHT22;10223;50.862;4.360;2023-06-04T14:44:45;31.60;59.00
20125;DHT22;10223;50.862;4.360;2023-06-04T14:47:12;31.20;59.10
20125;DHT22;10223;50.862;4.360;2023-06-04T14:49:39;30.50;58.80
20125;DHT22;10223;50.862;4.360;2023-06-04T14:52:07;30.00;59.80
20125;DHT22;10223;50.862;4.360;2023-06-04T14:54:34;29.40;60.80
20125;DHT22;10223;50.862;4.360;2023-06-04T14:57:01;29.70;60.80
20125;DHT22;10223;50.862;4.360;2023-06-04T14:59:28;30.20;59.50
20125;DHT22;10223;50.862;4.360;2023-06-04T15:01:55;31.00;58.80
20125;DHT22;10223;50.862;4.360;2023-06-04T15:04:22;30.20;58.40
20125;DHT22;10223;50.862;4.360;2023-06-04T15:06:49;29.90;59.20
20125;DHT22;10223;50.862;4.360;2023-06-04T15:09:18;29.70;59.90
20125;DHT22;10223;50.862;4.360;2023-06-04T15:11:45;28.60;60.70
20125;DHT22;10223;50.862;4.360;2023-06-04T15:14:12;28.40;61.90
20125;DHT22;10223;50.862;4.360;2023-06-04T15:16:39;28.80;61.80
20125;DHT22;10223;50.862;4.360;2023-06-04T15:19:06;29.50;60.70
20125;DHT22;10223;50.862;4.360;2023-06-04T15:21:34;29.30;60.70
20125;DHT22;10223;50.862;4.360;2023-06-04T15:24:01;29.20;60.30
20125;DHT22;10223;50.862;4.360;2023-06-04T15:26:29;30.10;60.20
20125;DHT22;10223;50.862;4.360;2023-06-04T15:28:56;29.80;58.90
20125;DHT22;10223;50.862;4.360;2023-06-04T15:31:23;29.60;59.00
20125;DHT22;10223;50.862;4.360;2023-06-04T15:33:54;28.90;59.70
20125;DHT22;10223;50.862;4.360;2023-06-04T15:36:21;29.00;59.70